Time;durP1;ratioP1;P1;durP2;ratioP2;P2;SDS_P1;SDS_P2;PMS_P1;PMS_P2;Temp;Humidity;BMP_temperature;BMP_pressure;BME280_temperature;BME280_humidity;BME280_pressure;Samples;Min_cycle;Max_cycle;Signal;HPM_P1;HPM_P2
2023/12/28 01:49:58;;;;;;;0.70;0.70;;;;;;;8.58;60.50;100275.63;4979863;28;20058;-91
2023/12/28 01:52:24;;;;;;;0.70;0.70;;;;;;;8.70;61.03;100283.31;4964215;28;20031;-90
2023/12/28 01:54:49;;;;;;;0.80;0.80;;;;;;;8.79;59.17;100288.44;4964010;28;20027;-92
2023/12/28 01:57:16;;;;;;;0.70;0.70;;;;;;;8.93;58.53;100275.75;4959417;28;20063;-91
2023/12/28 01:59:42;;;;;;;0.80;0.80;;;;;;;9.18;57.61;100290.22;4946249;28;20496;-91
2023/12/28 02:02:08;;;;;;;0.70;0.70;;;;;;;9.08;57.91;100243.56;4961184;29;20091;-90
2023/12/28 02:04:34;;;;;;;0.60;0.60;;;;;;;9.23;56.20;100232.59;4944678;29;20062;-92
2023/12/28 02:07:00;;;;;;;0.70;0.70;;;;;;;9.83;55.16;100293.97;4944871;29;20035;-91
2023/12/28 02:09:26;;;;;;;0.70;0.70;;;;;;;9.96;56.41;100298.94;4965528;28;20023;-91
2023/12/28 02:11:52;;;;;;;0.70;0.70;;;;;;;10.08;54.88;100289.81;4965148;28;20094;-91
2023/12/28 02:14:18;;;;;;;0.70;0.70;;;;;;;10.24;53.52;100272.53;4964512;28;20026;-91
2023/12/28 02:16:49;;;;;;;0.70;0.70;;;;;;;10.32;53.24;100249.25;4963670;28;20034;-91
2023/12/28 02:19:36;;;;;;;0.70;0.70;;;;;;;10.53;53.27;100262.84;4965771;28;20023;-91
2023/12/28 02:22:02;;;;;;;0.80;0.80;;;;;;;10.53;52.03;100257.50;4965978;28;20050;-92
2023/12/28 02:24:28;;;;;;;0.60;0.60;;;;;;;10.79;51.67;100263.88;4965340;28;20038;-91
2023/12/28 02:26:53;;;;;;;0.70;0.70;;;;;;;11.00;50.17;100274.75;4955304;29;20027;-91
2023/12/28 02:29:19;;;;;;;0.65;0.65;;;;;;;11.01;49.50;100249.88;4963738;29;20027;-92
2023/12/28 02:31:58;;;;;;;0.70;0.70;;;;;;;11.07;50.30;100238.16;4946162;28;20043;-89
2023/12/28 02:34:29;;;;;;;0.70;0.70;;;;;;;11.46;49.67;100277.72;4961476;28;20041;-91
2023/12/28 02:36:57;;;;;;;0.70;0.70;;;;;;;11.37;49.33;100229.19;4961722;28;20057;-90
2023/12/28 02:39:24;;;;;;;0.60;0.60;;;;;;;11.53;49.00;100241.97;4962218;28;20054;-90
2023/12/28 02:41:50;;;;;;;0.70;0.70;;;;;;;11.73;48.58;100262.66;4961372;28;20023;-90
2023/12/28 02:44:15;;;;;;;0.63;0.63;;;;;;;11.81;47.80;100244.63;4953575;29;20029;-90
2023/12/28 02:46:41;;;;;;;0.63;0.63;;;;;;;11.77;46.90;100224.31;4954884;28;20038;-91
2023/12/28 02:49:06;;;;;;;0.65;0.65;;;;;;;12.05;47.34;100270.44;4960671;28;20470;-90
2023/12/28 02:51:32;;;;;;;0.60;0.60;;;;;;;11.99;46.74;100249.34;4961500;28;20057;-89
2023/12/28 02:53:57;;;;;;;0.60;0.60;;;;;;;11.95;47.93;100258.34;4961303;28;20026;-90
2023/12/28 02:56:23;;;;;;;0.70;0.70;;;;;;;11.98;46.77;100252.06;4961132;28;20405;-90
2023/12/28 02:58:48;;;;;;;0.60;0.60;;;;;;;11.96;47.33;100249.41;4960731;28;20030;-90
2023/12/28 03:01:14;;;;;;;0.60;0.60;;;;;;;11.77;47.89;100222.53;4978756;28;20043;-89
2023/12/28 03:03:39;;;;;;;0.70;0.70;;;;;;;12.02;48.20;100270.53;4962525;28;20023;-90
2023/12/28 03:06:05;;;;;;;0.60;0.60;;;;;;;11.98;48.80;100276.03;4952234;28;20031;-90
2023/12/28 03:08:30;;;;;;;0.60;0.60;;;;;;;11.74;48.16;100243.09;4968182;28;20101;-91
2023/12/28 03:10:55;;;;;;;0.60;0.60;;;;;;;11.74;48.73;100254.63;4961552;28;20038;-90
2023/12/28 03:13:21;;;;;;;0.70;0.70;;;;;;;11.72;47.77;100231.59;4951553;29;20023;-90
2023/12/28 03:15:47;;;;;;;0.60;0.60;;;;;;;11.93;47.61;100253.06;4951111;28;20026;-90
2023/12/28 03:18:12;;;;;;;0.60;0.60;;;;;;;11.93;48.38;100232.69;4957208;29;20034;-91
2023/12/28 03:20:37;;;;;;;0.60;0.60;;;;;;;12.06;48.52;100269.50;4942156;29;20027;-90
2023/12/28 03:23:03;;;;;;;0.60;0.60;;;;;;;11.86;47.85;100242.69;4940835;29;20028;-88
2023/12/28 03:25:28;;;;;;;0.70;0.70;;;;;;;12.06;47.69;100261.50;4961450;28;20023;-91
2023/12/28 03:27:54;;;;;;;0.60;0.60;;;;;;;11.75;47.41;100183.53;4958010;28;20109;-90
2023/12/28 03:30:20;;;;;;;0.60;0.60;;;;;;;12.28;46.38;100261.63;4961821;28;20138;-89
2023/12/28 03:32:45;;;;;;;0.60;0.60;;;;;;;11.97;47.56;100189.84;4961734;28;20074;-91
2023/12/28 03:35:11;;;;;;;0.60;0.60;;;;;;;12.42;48.59;100270.88;4961834;28;20066;-94
2023/12/28 03:37:36;;;;;;;0.60;0.60;;;;;;;11.92;48.31;100205.16;4960910;29;20031;-91
2023/12/28 03:40:02;;;;;;;0.60;0.60;;;;;;;11.77;48.97;100200.34;4967050;29;20157;-90
2023/12/28 03:42:28;;;;;;;0.50;0.50;;;;;;;12.05;48.84;100238.44;4956734;29;20134;-92
2023/12/28 03:44:53;;;;;;;0.60;0.60;;;;;;;12.15;49.85;100258.53;4962503;28;20033;-91
2023/12/28 03:47:18;;;;;;;0.70;0.70;;;;;;;12.15;49.29;100260.31;4952289;28;20023;-92
2023/12/28 03:49:44;;;;;;;0.60;0.60;;;;;;;12.09;50.38;100242.75;4983471;28;20125;-91
2023/12/28 03:52:09;;;;;;;0.60;0.60;;;;;;;12.08;50.10;100249.00;4981335;28;20113;-91
2023/12/28 03:54:35;;;;;;;0.60;0.60;;;;;;;12.04;49.56;100255.38;4980102;28;20104;-89
2023/12/28 03:57:01;;;;;;;0.60;0.60;;;;;;;11.95;49.82;100226.34;4983992;28;20026;-92
2023/12/28 03:59:26;;;;;;;0.65;0.65;;;;;;;11.98;50.25;100228.91;4980275;28;20046;-92
2023/12/28 04:01:51;;;;;;;0.50;0.50;;;;;;;12.13;50.03;100241.72;4996411;28;20033;-92
2023/12/28 04:04:17;;;;;;;0.60;0.60;;;;;;;12.08;50.63;100237.44;5004730;28;20037;-91
2023/12/28 04:06:43;;;;;;;0.60;0.60;;;;;;;12.05;50.30;100238.44;4985185;28;20018;-91
2023/12/28 04:09:11;;;;;;;0.60;0.60;;;;;;;11.80;50.96;100186.91;4976806;28;20033;-92
2023/12/28 04:11:38;;;;;;;0.60;0.60;;;;;;;12.03;51.25;100240.28;4985406;28;20038;-92
2023/12/28 04:14:03;;;;;;;0.60;0.60;;;;;;;12.12;50.78;100255.97;4984843;28;20080;-90
2023/12/28 04:16:28;;;;;;;0.60;0.60;;;;;;;12.14;51.19;100264.75;5002901;28;20038;-91
2023/12/28 04:18:54;;;;;;;0.60;0.60;;;;;;;12.20;50.75;100272.56;4987182;28;20030;-91
2023/12/28 04:21:19;;;;;;;0.68;0.68;;;;;;;11.79;50.88;100198.50;4984879;28;20184;-92
2023/12/28 04:23:45;;;;;;;0.55;0.55;;;;;;;12.24;52.02;100274.19;4981882;28;20026;-91
2023/12/28 04:26:10;;;;;;;0.60;0.60;;;;;;;11.86;52.53;100216.03;4969015;28;20025;-93
2023/12/28 04:28:36;;;;;;;0.60;0.60;;;;;;;12.21;52.99;100270.78;4979746;28;20058;-90
2023/12/28 04:31:05;;;;;;;0.63;0.63;;;;;;;12.15;53.70;100258.53;4965339;28;20029;-91
2023/12/28 04:33:31;;;;;;;0.60;0.60;;;;;;;12.27;53.63;100281.22;4964984;28;20551;-91
2023/12/28 04:35:57;;;;;;;0.60;0.60;;;;;;;12.19;52.60;100259.28;4967042;28;20038;-91
2023/12/28 04:38:22;;;;;;;0.50;0.50;;;;;;;12.15;52.32;100250.53;4969737;28;20071;-91
2023/12/28 04:40:48;;;;;;;0.60;0.60;;;;;;;12.04;52.98;100226.06;4967527;28;20049;-92
2023/12/28 04:43:13;;;;;;;0.60;0.60;;;;;;;12.10;51.81;100233.81;4979808;28;20023;-90
2023/12/28 04:45:39;;;;;;;0.60;0.60;;;;;;;12.09;52.01;100229.44;4980018;28;20026;-91
2023/12/28 04:48:04;;;;;;;0.60;0.60;;;;;;;12.14;51.56;100227.44;4970326;28;20058;-91
2023/12/28 04:50:30;;;;;;;0.60;0.60;;;;;;;12.44;51.41;100273.47;5000517;28;20023;-90
2023/12/28 04:52:55;;;;;;;0.60;0.60;;;;;;;12.48;52.18;100270.66;4965946;28;20034;-90
2023/12/28 04:55:21;;;;;;;0.70;0.70;;;;;;;12.40;51.39;100261.19;4979754;28;20041;-90
2023/12/28 04:57:46;;;;;;;0.52;0.52;;;;;;;12.49;51.46;100283.06;4975523;28;20036;-90
2023/12/28 05:00:12;;;;;;;0.60;0.60;;;;;;;12.45;51.22;100276.13;4984268;28;20769;-91
2023/12/28 05:02:38;;;;;;;0.60;0.60;;;;;;;12.62;51.18;100302.19;4983168;28;20572;-90
2023/12/28 05:05:03;;;;;;;0.60;0.60;;;;;;;12.63;51.51;100304.81;5003253;28;20037;-92
2023/12/28 05:07:29;;;;;;;0.60;0.60;;;;;;;12.35;51.36;100269.38;4984535;28;20060;-90
2023/12/28 05:09:54;;;;;;;0.60;0.60;;;;;;;12.37;51.83;100258.66;4984428;28;20053;-91
2023/12/28 05:12:20;;;;;;;0.60;0.60;;;;;;;12.44;51.90;100282.34;4972898;28;20019;-92
2023/12/28 05:14:45;;;;;;;0.68;0.68;;;;;;;12.44;52.20;100285.03;4972102;28;20476;-91
2023/12/28 05:17:11;;;;;;;0.60;0.60;;;;;;;12.40;52.22;100274.53;4978109;28;20250;-94
2023/12/28 05:19:36;;;;;;;0.60;0.60;;;;;;;12.45;52.09;100281.47;4991736;28;20044;-90
2023/12/28 05:22:06;;;;;;;0.50;0.50;;;;;;;12.51;52.02;100278.56;4991441;28;20086;-93
2023/12/28 05:24:32;;;;;;;0.60;0.60;;;;;;;12.57;53.13;100297.00;4986597;28;20014;-92
2023/12/28 05:26:58;;;;;;;0.60;0.60;;;;;;;12.44;52.51;100285.03;4988505;28;20454;-91
2023/12/28 05:29:23;;;;;;;0.60;0.60;;;;;;;12.44;52.69;100271.69;4990619;28;20113;-91
2023/12/28 05:31:49;;;;;;;0.60;0.60;;;;;;;12.50;52.63;100279.50;4992643;28;20054;-91
2023/12/28 05:34:14;;;;;;;0.50;0.50;;;;;;;12.56;52.96;100283.72;4975719;28;20018;-90
2023/12/28 06:24:49;;;;;;;0.60;0.60;;;;;;;11.70;54.88;100236.97;779500;23;20323;-87
2023/12/28 06:27:14;;;;;;;0.60;0.60;;;;;;;12.14;55.15;100320.75;4969083;28;20058;-90
2023/12/28 06:29:40;;;;;;;0.50;0.50;;;;;;;11.93;54.50;100289.50;4971156;28;20035;-89
2023/12/28 06:32:05;;;;;;;0.60;0.60;;;;;;;12.04;54.36;100314.03;4971388;28;20099;-91
2023/12/28 06:34:31;;;;;;;0.60;0.60;;;;;;;12.15;53.22;100321.66;4969892;28;20035;-90
2023/12/28 06:36:56;;;;;;;0.60;0.60;;;;;;;12.28;54.89;100330.97;4956326;28;20039;-91
2023/12/28 06:39:22;;;;;;;0.60;0.60;;;;;;;11.94;53.91;100272.59;4969453;28;20118;-90
2023/12/28 06:41:48;;;;;;;0.60;0.60;;;;;;;12.21;54.09;100326.78;4965828;28;20608;-90
2023/12/28 06:44:16;;;;;;;0.50;0.50;;;;;;;12.26;54.35;100344.34;4967519;28;20156;-94
2023/12/28 06:46:41;;;;;;;0.60;0.60;;;;;;;12.23;54.19;100332.91;4981526;28;20029;-91
2023/12/28 06:49:07;;;;;;;0.60;0.60;;;;;;;12.07;54.33;100316.59;4988792;28;20053;-91
2023/12/28 06:51:33;;;;;;;0.70;0.70;;;;;;;11.97;54.11;100306.28;4987766;28;20022;-91
2023/12/28 06:53:58;;;;;;;0.60;0.60;;;;;;;11.98;54.66;100310.69;4987048;28;20026;-93
2023/12/28 06:56:24;;;;;;;0.60;0.60;;;;;;;12.06;54.40;100313.97;4982787;28;20349;-90
2023/12/28 06:58:50;;;;;;;0.60;0.60;;;;;;;12.18;54.40;100335.75;4986370;28;20026;-92
2023/12/28 07:01:15;;;;;;;0.60;0.60;;;;;;;12.18;54.36;100340.19;4989719;28;20057;-92
2023/12/28 07:03:41;;;;;;;0.63;0.63;;;;;;;11.86;53.91;100290.66;5003938;28;20018;-92
2023/12/28 07:06:06;;;;;;;0.60;0.60;;;;;;;12.09;54.11;100325.41;4976479;28;20042;-91
2023/12/28 07:08:32;;;;;;;0.60;0.60;;;;;;;12.14;53.87;100339.44;4988418;28;20054;-88
2023/12/28 07:10:57;;;;;;;0.70;0.70;;;;;;;12.21;53.67;100335.63;4994053;28;20022;-90
2023/12/28 07:13:23;;;;;;;0.70;0.70;;;;;;;12.04;53.87;100303.38;4976557;28;20022;-90
2023/12/28 07:15:48;;;;;;;0.60;0.60;;;;;;;12.14;53.94;100333.25;4989969;28;20042;-90
2023/12/28 07:18:14;;;;;;;0.70;0.70;;;;;;;12.23;54.13;100349.81;4982362;28;20018;-91
2023/12/28 07:20:39;;;;;;;0.60;0.60;;;;;;;12.24;54.27;100350.69;4986674;28;20026;-90
2023/12/28 07:23:05;;;;;;;0.60;0.60;;;;;;;12.16;54.39;100337.59;4987235;28;20018;-90
2023/12/28 07:25:31;;;;;;;0.60;0.60;;;;;;;12.19;54.55;100332.16;4967375;28;20051;-90
2023/12/28 07:27:56;;;;;;;0.60;0.60;;;;;;;12.32;54.55;100370.81;4944131;29;20106;-92
2023/12/28 07:30:21;;;;;;;0.60;0.60;;;;;;;12.24;55.01;100356.03;4953149;28;20094;-92
2023/12/28 07:32:47;;;;;;;0.60;0.60;;;;;;;12.13;55.63;100334.16;4970599;28;20027;-91
2023/12/28 07:35:13;;;;;;;0.65;0.65;;;;;;;12.08;55.71;100342.31;4962931;28;20457;-92
2023/12/28 07:37:38;;;;;;;0.60;0.60;;;;;;;12.19;57.27;100364.16;4960254;28;20029;-89
2023/12/28 07:40:04;;;;;;;0.60;0.60;;;;;;;12.04;58.05;100348.69;4960957;28;20385;-91
2023/12/28 07:42:30;;;;;;;0.60;0.60;;;;;;;12.09;59.24;100362.75;4961683;28;20019;-91
2023/12/28 07:44:55;;;;;;;0.60;0.60;;;;;;;12.03;59.66;100356.72;4961748;28;20103;-90
2023/12/28 07:47:21;;;;;;;0.70;0.70;;;;;;;12.04;58.79;100370.03;4963449;28;20122;-90
2023/12/28 07:49:46;;;;;;;0.57;0.57;;;;;;;12.06;58.78;100370.81;4964932;28;20045;-91
2023/12/28 07:52:12;;;;;;;0.70;0.70;;;;;;;11.96;59.28;100372.03;4967131;28;20023;-90
2023/12/28 07:54:37;;;;;;;0.70;0.70;;;;;;;11.91;59.25;100347.31;4962617;28;20023;-90
2023/12/28 07:57:03;;;;;;;0.60;0.60;;;;;;;12.06;57.95;100368.16;4944449;29;20026;-90
2023/12/28 07:59:28;;;;;;;0.60;0.60;;;;;;;11.96;58.71;100361.38;4944779;29;20524;-91
2023/12/28 08:01:55;;;;;;;0.70;0.70;;;;;;;12.06;59.04;100370.81;4957225;29;20151;-92
2023/12/28 08:04:20;;;;;;;0.70;0.70;;;;;;;12.00;61.19;100371.03;4955559;28;20575;-92
2023/12/28 08:06:46;;;;;;;0.63;0.63;;;;;;;12.00;62.74;100383.47;4985185;28;20097;-93
2023/12/28 08:09:12;;;;;;;0.60;0.60;;;;;;;11.71;62.30;100328.47;4965464;28;20018;-92
2023/12/28 08:11:38;;;;;;;0.60;0.60;;;;;;;11.67;64.02;100332.13;4965316;28;20027;-92
2023/12/28 08:14:03;;;;;;;0.60;0.60;;;;;;;11.75;64.30;100359.41;4951561;29;20023;-94
2023/12/28 08:16:29;;;;;;;0.60;0.60;;;;;;;11.75;63.86;100367.41;4958478;28;20031;-93
2023/12/28 08:18:54;;;;;;;0.60;0.60;;;;;;;11.76;63.28;100372.69;4952205;28;20034;-91
2023/12/28 08:21:20;;;;;;;0.70;0.70;;;;;;;11.50;64.29;100334.41;4982205;28;20042;-91
2023/12/28 08:23:45;;;;;;;0.65;0.65;;;;;;;11.81;64.40;100377.88;4985019;28;20101;-92
2023/12/28 08:26:11;;;;;;;0.60;0.60;;;;;;;11.63;64.32;100351.78;4977643;28;20110;-91
2023/12/28 08:28:37;;;;;;;0.60;0.60;;;;;;;11.70;63.86;100382.66;4982701;28;20034;-91
2023/12/28 08:31:02;;;;;;;0.70;0.70;;;;;;;11.72;63.87;100384.38;4988870;28;20027;-93
2023/12/28 08:33:27;;;;;;;0.70;0.70;;;;;;;11.74;63.68;100397.66;5006890;28;20038;-92
2023/12/28 08:35:53;;;;;;;0.60;0.60;;;;;;;11.62;62.71;100366.91;5001149;28;20085;-93
2023/12/28 08:38:19;;;;;;;0.60;0.60;;;;;;;11.73;63.81;100402.09;4973140;28;20029;-92
2023/12/28 08:40:45;;;;;;;0.65;0.65;;;;;;;11.65;64.06;100374.81;4966820;28;20042;-92
2023/12/28 08:43:11;;;;;;;0.70;0.70;;;;;;;11.71;64.83;100384.44;4966574;28;20093;-92
2023/12/28 08:45:36;;;;;;;0.70;0.70;;;;;;;11.69;65.07;100388.91;4986288;28;20034;-90
2023/12/28 08:48:02;;;;;;;0.70;0.70;;;;;;;11.70;65.29;100395.97;4988865;28;20030;-91
2023/12/28 08:50:28;;;;;;;0.60;0.60;;;;;;;11.74;64.65;100408.31;4975794;28;20042;-92
2023/12/28 08:52:53;;;;;;;0.60;0.60;;;;;;;11.82;66.16;100411.59;4986890;28;20030;-92
2023/12/28 08:55:19;;;;;;;0.70;0.70;;;;;;;11.79;65.82;100403.72;4984931;28;20125;-90
2023/12/28 08:57:44;;;;;;;0.68;0.68;;;;;;;11.81;65.57;100416.06;4988068;28;20033;-92
2023/12/28 09:00:11;;;;;;;0.70;0.70;;;;;;;11.88;65.86;100403.41;4967580;28;20023;-93
2023/12/28 09:02:37;;;;;;;0.70;0.70;;;;;;;11.86;65.49;100391.94;4982190;28;20159;-93
2023/12/28 09:05:03;;;;;;;0.60;0.60;;;;;;;11.82;65.98;100379.63;4988827;28;20025;-93
2023/12/28 09:07:28;;;;;;;0.70;0.70;;;;;;;11.92;65.49;100386.41;4987203;28;20078;-89
2023/12/28 09:09:53;;;;;;;0.60;0.60;;;;;;;11.94;65.10;100396.06;4986129;28;20491;-90
2023/12/28 09:12:19;;;;;;;0.60;0.60;;;;;;;12.02;64.46;100409.19;5003030;28;20022;-91
2023/12/28 09:14:44;;;;;;;0.70;0.70;;;;;;;11.96;63.32;100398.69;4985988;28;20129;-91
2023/12/28 09:17:11;;;;;;;0.70;0.70;;;;;;;12.09;63.56;100409.84;4969405;28;20551;-91
2023/12/28 09:19:36;;;;;;;0.50;0.50;;;;;;;11.72;64.99;100338.19;4964452;28;20885;-90
2023/12/28 09:22:02;;;;;;;0.70;0.70;;;;;;;12.15;65.66;100410.53;4982550;28;20049;-93
2023/12/28 09:24:27;;;;;;;0.60;0.60;;;;;;;11.94;66.40;100396.06;4970385;28;20025;-90
2023/12/28 09:26:53;;;;;;;0.70;0.70;;;;;;;12.14;65.08;100424.75;4984479;28;20046;-91
2023/12/28 09:29:18;;;;;;;0.60;0.60;;;;;;;12.15;63.92;100405.19;4998826;28;20033;-93
2023/12/28 09:31:46;;;;;;;0.65;0.65;;;;;;;12.31;63.50;100430.44;5002016;28;20113;-90
2023/12/28 09:34:11;;;;;;;0.70;0.70;;;;;;;12.30;63.23;100419.81;4986499;28;20121;-90
2023/12/28 09:36:37;;;;;;;0.50;0.50;;;;;;;12.28;63.55;100411.88;4983972;28;20026;-92
2023/12/28 09:39:03;;;;;;;0.60;0.60;;;;;;;12.28;62.91;100406.53;4985416;28;20078;-91
2023/12/28 09:41:36;;;;;;;0.60;0.60;;;;;;;12.42;63.41;100425.59;4984596;28;20027;-91
2023/12/28 09:44:11;;;;;;;0.70;0.70;;;;;;;12.30;61.91;100404.69;4967724;28;20488;-91
2023/12/28 09:46:38;;;;;;;0.60;0.60;;;;;;;12.42;61.59;100430.94;4965385;28;20034;-90
2023/12/28 09:49:04;;;;;;;0.70;0.70;;;;;;;12.38;61.02;100423.97;4974604;28;20019;-91
2023/12/28 09:51:30;;;;;;;0.60;0.60;;;;;;;12.35;61.09;100402.75;4986060;28;20090;-92
2023/12/28 09:53:56;;;;;;;0.60;0.60;;;;;;;12.09;60.98;100352.06;4967647;28;20157;-91
2023/12/28 09:56:23;;;;;;;0.70;0.70;;;;;;;12.39;61.83;100399.03;4964490;28;20388;-91
2023/12/28 09:58:50;;;;;;;0.60;0.60;;;;;;;12.50;64.24;100420.91;4968219;28;20085;-91
2023/12/28 10:01:17;;;;;;;0.60;0.60;;;;;;;12.40;66.23;100408.78;5004407;28;20026;-91
2023/12/28 10:03:43;;;;;;;0.60;0.60;;;;;;;12.34;69.14;100416.13;4987982;28;20546;-92
2023/12/28 10:06:08;;;;;;;0.60;0.60;;;;;;;12.20;71.24;100400.59;4991098;28;20026;-92
2023/12/28 10:08:35;;;;;;;0.60;0.60;;;;;;;11.98;72.53;100385.34;4996928;28;20084;-93
2023/12/28 10:11:02;;;;;;;0.60;0.60;;;;;;;12.09;73.19;100436.53;4993381;28;20022;-91
2023/12/28 10:13:28;;;;;;;0.60;0.60;;;;;;;12.07;74.94;100423.25;4994165;28;20022;-93
2023/12/28 10:15:58;;;;;;;0.70;0.70;;;;;;;12.04;77.28;100427.78;4976251;28;20094;-94
2023/12/28 10:18:24;;;;;;;0.60;0.60;;;;;;;11.74;78.15;100384.31;4961707;28;20030;-92
2023/12/28 10:20:53;;;;;;;0.70;0.70;;;;;;;11.78;79.63;100399.28;4976253;28;20094;-93
2023/12/28 10:23:20;;;;;;;0.70;0.70;;;;;;;11.42;80.38;100345.31;4974499;28;20091;-94
2023/12/28 10:25:46;;;;;;;0.60;0.60;;;;;;;11.69;80.82;100392.47;4972677;28;20054;-93
2023/12/28 10:28:12;;;;;;;0.70;0.70;;;;;;;11.67;80.03;100391.63;4977799;28;20046;-94
2023/12/28 10:30:41;;;;;;;0.60;0.60;;;;;;;11.75;80.71;100399.38;5012098;28;20069;-94
2023/12/28 10:33:08;;;;;;;0.70;0.70;;;;;;;11.81;81.31;100404.53;4994513;28;20199;-94
2023/12/28 10:35:34;;;;;;;0.70;0.70;;;;;;;11.69;82.68;100388.91;4964107;28;20030;-93
2023/12/28 10:38:03;;;;;;;0.70;0.70;;;;;;;11.70;83.08;100383.53;4980678;28;20038;-93
2023/12/28 10:40:31;;;;;;;0.60;0.60;;;;;;;11.71;82.63;100395.94;4995602;28;20074;-94
2023/12/28 10:43:01;;;;;;;0.70;0.70;;;;;;;11.69;83.03;100400.47;5007657;28;20040;-92
2023/12/28 10:45:29;;;;;;;0.70;0.70;;;;;;;11.52;83.26;100364.53;5007550;28;20046;-92
2023/12/28 10:48:08;;;;;;;0.60;0.60;;;;;;;11.60;85.52;100392.69;4989868;28;20037;-92
2023/12/28 10:50:42;;;;;;;0.70;0.70;;;;;;;11.53;85.60;100382.31;4993289;28;20018;-92
2023/12/28 10:53:19;;;;;;;;;;;;;;;11.56;85.81;100385.75;4976217;28;20039;-91
2023/12/28 10:55:48;;;;;;;0.60;0.60;;;;;;;11.54;84.81;100389.34;4982855;28;19917;-93
2023/12/28 10:58:42;;;;;;;0.60;0.60;;;;;;;11.49;84.21;100377.97;4988898;28;20026;-92
2023/12/28 11:01:11;;;;;;;0.70;0.70;;;;;;;11.43;83.88;100372.84;4952238;28;20696;-91
2023/12/28 11:03:40;;;;;;;0.70;0.70;;;;;;;11.39;83.10;100358.75;4984344;28;20089;-93
2023/12/28 11:06:08;;;;;;;0.60;0.60;;;;;;;11.45;83.01;100355.03;4980209;28;20112;-92
2023/12/28 11:08:35;;;;;;;0.60;0.60;;;;;;;11.66;82.82;100378.38;4992107;28;20101;-93
2023/12/28 11:11:03;;;;;;;0.60;0.60;;;;;;;11.65;82.91;100371.28;4974056;28;20097;-95
2023/12/28 11:13:32;;;;;;;0.70;0.70;;;;;;;11.62;83.81;100376.66;4990341;28;20097;-93
2023/12/28 11:15:59;;;;;;;0.70;0.70;;;;;;;11.65;84.63;100379.25;4989028;28;20582;-91
2023/12/28 11:18:25;;;;;;;0.70;0.70;;;;;;;11.70;84.46;100390.66;4989676;28;20015;-92
2023/12/28 11:20:51;;;;;;;0.70;0.70;;;;;;;11.44;86.11;100345.28;4995538;28;20041;-93
2023/12/28 11:23:17;;;;;;;0.60;0.60;;;;;;;11.68;86.51;100379.16;4997912;28;20066;-92
2023/12/28 11:25:43;;;;;;;0.60;0.60;;;;;;;11.51;87.30;100357.50;4970659;28;20054;-91
2023/12/28 11:28:12;;;;;;;0.70;0.70;;;;;;;11.61;87.32;100369.59;4986620;28;20033;-93
2023/12/28 11:30:38;;;;;;;0.60;0.60;;;;;;;11.46;86.98;100370.06;4983696;28;20534;-94
2023/12/28 11:33:07;;;;;;;0.70;0.70;;;;;;;11.55;86.64;100372.44;4971864;28;20081;-92
2023/12/28 11:35:39;;;;;;;0.70;0.70;;;;;;;11.49;86.53;100346.00;4978139;28;20042;-91
2023/12/28 11:38:09;;;;;;;0.60;0.60;;;;;;;11.58;86.77;100364.38;4970620;28;20026;-93
2023/12/28 11:41:03;;;;;;;0.60;0.60;;;;;;;11.39;86.30;100342.75;4969517;28;20031;-93
2023/12/28 11:43:33;;;;;;;0.70;0.70;;;;;;;11.56;86.93;100352.91;4968472;28;20030;-94
2023/12/28 11:46:00;;;;;;;0.70;0.70;;;;;;;11.67;86.70;100375.66;4963103;28;20553;-94
2023/12/28 11:48:27;;;;;;;0.60;0.60;;;;;;;11.53;86.93;100348.50;4995276;28;20052;-94
2023/12/28 11:51:00;;;;;;;0.60;0.60;;;;;;;11.55;87.72;100359.13;4996405;28;20089;-93
2023/12/28 11:53:26;;;;;;;0.70;0.70;;;;;;;11.48;87.97;100342.47;4992311;28;20022;-93
2023/12/28 11:55:59;;;;;;;0.60;0.60;;;;;;;11.66;88.21;100373.03;4975698;28;20042;-93
2023/12/28 11:58:25;;;;;;;0.70;0.70;;;;;;;11.55;88.20;100352.00;4990621;28;20093;-95
2023/12/28 12:00:50;;;;;;;0.70;0.70;;;;;;;11.50;88.99;100350.41;4986513;28;20052;-92
2023/12/28 12:03:16;;;;;;;0.60;0.60;;;;;;;11.52;89.69;100348.56;5007281;28;20500;-92
2023/12/28 12:05:41;;;;;;;0.70;0.70;;;;;;;11.47;90.42;100346.06;4986830;28;20590;-91
2023/12/28 12:08:10;;;;;;;0.70;0.70;;;;;;;11.54;91.47;100371.59;4986291;28;20384;-93
2023/12/28 12:10:36;;;;;;;0.70;0.70;;;;;;;11.62;91.79;100376.66;4983482;28;20057;-92
2023/12/28 12:13:02;;;;;;;0.70;0.70;;;;;;;11.20;91.08;100314.06;4985121;28;20014;-92
2023/12/28 12:15:29;;;;;;;0.70;0.70;;;;;;;11.16;91.75;100307.97;4987638;28;20101;-92
2023/12/28 12:17:54;;;;;;;0.70;0.70;;;;;;;11.45;92.73;100358.53;4985593;28;20077;-91
2023/12/28 12:20:20;;;;;;;0.60;0.60;;;;;;;11.50;93.45;100366.38;4978497;28;20082;-92
2023/12/28 12:22:46;;;;;;;0.60;0.60;;;;;;;11.08;95.00;100293.13;4967575;28;20037;-91
2023/12/28 12:25:12;;;;;;;0.70;0.70;;;;;;;11.34;95.32;100343.81;4984977;28;20046;-90
2023/12/28 12:27:38;;;;;;;0.70;0.70;;;;;;;11.37;97.00;100359.69;4968852;28;20370;-91
2023/12/28 12:30:04;;;;;;;0.70;0.70;;;;;;;11.36;97.64;100371.28;4983914;28;20030;-92
2023/12/28 12:32:31;;;;;;;0.70;0.70;;;;;;;11.16;98.15;100337.25;4964301;28;20086;-90
2023/12/28 12:34:57;;;;;;;0.70;0.70;;;;;;;11.20;99.32;100346.88;4968000;28;20732;-89
2023/12/28 12:37:23;;;;;;;0.75;0.75;;;;;;;10.85;100.00;100303.59;4965262;28;20122;-90
2023/12/28 12:39:50;;;;;;;0.70;0.70;;;;;;;10.67;100.00;100272.19;4973741;28;20022;-92
2023/12/28 12:42:19;;;;;;;0.60;0.60;;;;;;;10.83;100.00;100297.44;4990259;28;20018;-90
2023/12/28 12:44:44;;;;;;;0.70;0.70;;;;;;;10.55;100.00;100255.69;5018298;28;20042;-90
2023/12/28 12:47:10;;;;;;;0.75;0.75;;;;;;;10.80;100.00;100284.22;4986816;28;20030;-92
2023/12/28 12:49:36;;;;;;;0.70;0.70;;;;;;;10.80;100.00;100289.56;4987131;28;20030;-92
2023/12/28 12:52:02;;;;;;;0.70;0.70;;;;;;;11.07;100.00;100341.97;4985236;28;20118;-90
2023/12/28 12:54:28;;;;;;;0.60;0.60;;;;;;;10.69;100.00;100262.41;4972307;28;20046;-90
2023/12/28 12:56:54;;;;;;;0.70;0.70;;;;;;;10.58;100.00;100244.94;5003045;28;20048;-92
2023/12/28 12:59:20;;;;;;;0.60;0.60;;;;;;;11.10;100.00;100334.78;4977781;28;20133;-90
2023/12/28 13:01:48;;;;;;;0.70;0.70;;;;;;;11.20;100.00;100346.88;4987238;28;20061;-91
2023/12/28 13:04:15;;;;;;;0.60;0.60;;;;;;;11.11;100.00;100332.97;4984526;28;20128;-90
2023/12/28 13:06:41;;;;;;;0.70;0.70;;;;;;;10.87;100.00;100299.09;4981325;28;20026;-91
2023/12/28 13:09:07;;;;;;;0.80;0.80;;;;;;;10.77;100.00;100271.91;4981840;28;20037;-90
2023/12/28 13:11:34;;;;;;;0.60;0.60;;;;;;;11.09;100.00;100319.72;4964375;28;20047;-91
2023/12/28 13:13:59;;;;;;;0.65;0.65;;;;;;;11.09;100.00;100327.69;4976384;28;20026;-90
2023/12/28 13:16:25;;;;;;;0.70;0.70;;;;;;;11.21;100.00;100332.66;4983075;28;20033;-90
2023/12/28 13:18:50;;;;;;;0.70;0.70;;;;;;;11.14;100.00;100315.13;4979604;28;20026;-89
2023/12/28 13:21:16;;;;;;;0.70;0.70;;;;;;;11.19;100.00;100312.31;4980411;28;20074;-89
2023/12/28 13:23:41;;;;;;;0.70;0.70;;;;;;;11.25;100.00;100339.63;4982028;28;20065;-90
2023/12/28 13:26:07;;;;;;;0.70;0.70;;;;;;;11.34;100.00;100346.47;4967602;28;20090;-90
2023/12/28 13:28:33;;;;;;;0.70;0.70;;;;;;;11.35;100.00;100333.09;4961429;28;20025;-90
2023/12/28 13:30:58;;;;;;;0.70;0.70;;;;;;;11.16;100.00;100297.31;4963337;28;20073;-90
2023/12/28 13:33:24;;;;;;;0.60;0.60;;;;;;;11.45;100.00;100336.38;5000100;28;20026;-90
2023/12/28 13:35:50;;;;;;;0.70;0.70;;;;;;;11.47;100.00;100353.16;4978036;28;20026;-90
2023/12/28 13:38:16;;;;;;;0.60;0.60;;;;;;;11.33;100.00;100316.31;4998028;28;20061;-91
2023/12/28 13:40:42;;;;;;;0.68;0.68;;;;;;;11.23;100.00;100298.00;4997958;28;20499;-91
2023/12/28 13:43:07;;;;;;;0.60;0.60;;;;;;;11.45;100.00;100321.25;4983369;28;20033;-90
2023/12/28 13:45:32;;;;;;;0.70;0.70;;;;;;;11.16;100.00;100269.81;4984420;28;20022;-91
2023/12/28 13:47:58;;;;;;;0.60;0.60;;;;;;;11.14;100.00;100269.88;4985840;28;20116;-92
2023/12/28 13:50:23;;;;;;;0.60;0.60;;;;;;;11.56;100.00;100328.91;4980351;28;20053;-91
2023/12/28 13:52:49;;;;;;;0.60;0.60;;;;;;;11.35;100.00;100313.63;4984654;28;20018;-92
2023/12/28 13:55:14;;;;;;;0.70;0.70;;;;;;;11.44;100.00;100322.19;4976918;28;20031;-91
2023/12/28 13:57:40;;;;;;;0.63;0.63;;;;;;;11.47;100.00;100322.06;4981632;28;20480;-91